createdAt,value
2023-04-01T00:01:51.958Z,4.28
2023-04-01T00:04:19.686Z,4.30
2023-04-01T00:06:48.532Z,4.28
2023-04-01T00:09:16.093Z,4.28
2023-04-01T00:11:43.631Z,4.28
2023-04-01T00:14:11.772Z,4.27
2023-04-01T00:16:39.489Z,4.25
2023-04-01T00:19:07.153Z,4.24
2023-04-01T00:21:34.905Z,4.27
2023-04-01T00:47:46.624Z,4.20
2023-04-01T00:50:14.346Z,4.20
2023-04-01T00:52:41.951Z,4.20
2023-04-01T00:55:12.258Z,4.21
2023-04-01T00:57:41.460Z,4.21
2023-04-01T01:00:11.088Z,4.21
2023-04-01T01:02:39.386Z,4.18
2023-04-01T01:05:06.969Z,4.16
2023-04-01T01:07:34.459Z,4.13
2023-04-01T01:10:11.331Z,4.10
2023-04-01T01:12:39.993Z,4.08
2023-04-01T01:15:07.198Z,4.08
2023-04-01T01:17:42.626Z,4.09
2023-04-01T01:20:26.042Z,4.07
2023-04-01T01:22:57.478Z,4.08
2023-04-01T01:25:33.491Z,4.08
2023-04-01T01:28:16.650Z,4.09
2023-04-01T01:30:50.566Z,4.12
2023-04-01T01:33:18.509Z,4.12
2023-04-01T01:35:57.617Z,4.13
2023-04-01T01:38:27.892Z,4.14
2023-04-01T01:41:05.115Z,4.17
2023-04-01T01:43:35.233Z,4.20
2023-04-01T01:46:05.917Z,4.21
2023-04-01T01:48:34.053Z,4.20
2023-04-01T01:51:01.697Z,4.23
2023-04-01T01:53:28.917Z,4.24
2023-04-01T01:55:56.867Z,4.25
2023-04-01T01:58:24.542Z,4.26
2023-04-01T02:00:57.467Z,4.26
2023-04-01T02:03:26.369Z,4.27
2023-04-01T02:05:55.273Z,4.27
2023-04-01T02:08:26.635Z,4.27
2023-04-01T02:11:01.204Z,4.30
2023-04-01T02:13:41.770Z,4.33
2023-04-01T02:16:30.937Z,4.33
2023-04-01T02:18:59.278Z,4.34
2023-04-01T02:21:28.894Z,4.35
2023-04-01T02:23:58.115Z,4.35
2023-04-01T02:26:26.808Z,4.36
2023-04-01T02:28:55.485Z,4.37
2023-04-01T02:31:24.685Z,4.39
2023-04-01T02:33:52.073Z,4.42
2023-04-01T02:36:19.581Z,4.44
2023-04-01T02:38:48.040Z,4.44
2023-04-01T02:41:15.554Z,4.47
2023-04-01T02:43:43.024Z,4.44
2023-04-01T02:46:10.771Z,4.46
2023-04-01T02:48:38.873Z,4.48
2023-04-01T02:51:06.738Z,4.48
2023-04-01T02:53:34.123Z,4.49
2023-04-01T02:56:01.356Z,4.47
2023-04-01T02:58:28.612Z,4.48
2023-04-01T03:00:56.279Z,4.47
2023-04-01T03:03:23.563Z,4.48
2023-04-01T03:05:51.092Z,4.48
2023-04-01T03:08:20.045Z,4.48
2023-04-01T03:10:47.500Z,4.48
2023-04-01T03:13:14.956Z,4.47
2023-04-01T03:15:42.234Z,4.49
2023-04-01T03:18:09.875Z,4.49
2023-04-01T03:20:38.688Z,4.52
2023-04-01T03:23:05.975Z,4.53
2023-04-01T03:25:33.523Z,4.55
2023-04-01T03:28:03.235Z,4.54
2023-04-01T03:30:34.905Z,4.52
2023-04-01T03:33:02.847Z,4.51
2023-04-01T03:35:32.311Z,4.50
2023-04-01T03:38:00.379Z,4.51
2023-04-01T03:40:28.582Z,4.52
2023-04-01T03:42:57.333Z,4.55
2023-04-01T03:45:25.373Z,4.55
2023-04-01T03:47:52.703Z,4.58
2023-04-01T03:50:21.208Z,4.63
2023-04-01T03:52:48.502Z,4.67
2023-04-01T03:55:16.579Z,4.68
2023-04-01T03:57:44.120Z,4.67
2023-04-01T04:00:19.044Z,4.68
2023-04-01T04:02:51.781Z,4.67
2023-04-01T04:05:26.710Z,4.66
2023-04-01T04:07:54.560Z,4.65
2023-04-01T04:10:24.064Z,4.65
2023-04-01T04:12:52.180Z,4.68
2023-04-01T04:15:21.336Z,4.69
2023-04-01T04:17:48.975Z,4.70
2023-04-01T04:20:16.607Z,4.70
2023-04-01T04:22:44.084Z,4.69
2023-04-01T04:25:11.703Z,4.69
2023-04-01T04:27:40.444Z,4.69
2023-04-01T04:30:10.557Z,4.70
2023-04-01T04:32:38.451Z,4.72
2023-04-01T04:35:07.788Z,4.74
2023-04-01T04:37:35.587Z,4.77
2023-04-01T04:40:03.027Z,4.82
2023-04-01T04:42:31.962Z,4.85
2023-04-01T04:45:05.638Z,4.90
2023-04-01T04:47:33.156Z,4.96
2023-04-01T04:50:00.586Z,4.99
2023-04-01T04:52:28.392Z,5.02
2023-04-01T04:54:56.130Z,5.04
2023-04-01T04:57:23.709Z,5.02
2023-04-01T04:59:55.561Z,5.02
2023-04-01T05:02:45.041Z,5.04
2023-04-01T05:05:12.605Z,5.03
2023-04-01T05:07:40.827Z,5.00
2023-04-01T05:10:09.001Z,5.03
2023-04-01T05:12:40.005Z,5.08
2023-04-01T05:15:10.077Z,5.18
2023-04-01T05:17:38.942Z,5.28
2023-04-01T05:20:07.463Z,5.39
2023-04-01T05:22:35.231Z,5.52
2023-04-01T05:25:02.731Z,5.62
2023-04-01T05:27:30.684Z,5.73
2023-04-01T05:29:58.236Z,5.81
2023-04-01T05:32:48.839Z,5.90
2023-04-01T05:35:16.517Z,5.97
2023-04-01T05:37:43.966Z,6.07
2023-04-01T05:40:11.943Z,6.17
2023-04-01T05:42:39.733Z,6.28
2023-04-01T05:45:07.535Z,6.34
2023-04-01T05:47:53.712Z,6.41
2023-04-01T05:50:22.050Z,6.45
2023-04-01T05:52:49.821Z,6.50
2023-04-01T05:55:18.155Z,6.58
2023-04-01T05:57:50.455Z,6.64
2023-04-01T06:00:18.414Z,6.71
2023-04-01T06:02:47.475Z,6.82
2023-04-01T06:05:18.059Z,6.90
2023-04-01T06:07:45.730Z,6.94
2023-04-01T06:10:14.274Z,6.98
2023-04-01T06:12:49.226Z,7.04
2023-04-01T06:15:24.575Z,7.10
2023-04-01T06:18:10.503Z,7.31
2023-04-01T06:20:49.891Z,7.65
2023-04-01T06:23:26.146Z,8.01
2023-04-01T06:26:29.523Z,8.27
2023-04-01T06:28:59.525Z,8.54
2023-04-01T06:31:33.498Z,8.71
2023-04-01T06:34:10.092Z,8.80
2023-04-01T06:36:45.247Z,8.91
2023-04-01T06:39:17.981Z,9.03
2023-04-01T06:42:04.360Z,9.07
2023-04-01T06:44:58.294Z,8.99
2023-04-01T06:47:47.238Z,8.76
2023-04-01T06:50:51.675Z,8.60
2023-04-01T06:54:00.214Z,8.36
2023-04-01T06:57:32.471Z,8.10
2023-04-01T07:00:05.844Z,8.02
2023-04-01T07:02:45.313Z,8.00
2023-04-01T07:05:13.155Z,7.94
2023-04-01T07:07:41.583Z,7.94
2023-04-01T07:10:18.127Z,7.95
2023-04-01T07:13:07.756Z,8.16
2023-04-01T07:16:05.683Z,8.49
2023-04-01T07:18:44.051Z,8.77
2023-04-01T07:21:19.660Z,8.82
2023-04-01T07:23:47.398Z,8.93
2023-04-01T07:26:40.939Z,9.25
2023-04-01T07:29:15.684Z,9.40
2023-04-01T07:32:03.076Z,9.63
2023-04-01T07:34:40.427Z,9.96
2023-04-01T07:37:18.516Z,10.19
2023-04-01T07:40:21.692Z,10.28
2023-04-01T07:43:01.487Z,10.47
2023-04-01T07:45:29.192Z,10.66
2023-04-01T07:48:06.348Z,10.88
2023-04-01T07:50:37.030Z,11.23
2023-04-01T07:53:26.648Z,11.46
2023-04-01T07:56:02.537Z,11.62
2023-04-01T07:58:35.742Z,11.79
2023-04-01T08:01:25.667Z,11.72
2023-04-01T08:03:59.184Z,11.78
2023-04-01T08:06:29.819Z,12.03
2023-04-01T08:08:57.330Z,12.35
2023-04-01T08:12:11.187Z,12.67
2023-04-01T08:15:07.796Z,12.61
2023-04-01T08:17:48.396Z,12.63
2023-04-01T08:20:34.971Z,12.69
2023-04-01T08:23:09.969Z,12.78
2023-04-01T08:25:52.383Z,12.72
2023-04-01T08:28:25.610Z,12.65
2023-04-01T08:30:57.492Z,12.64
2023-04-01T08:33:25.260Z,12.45
2023-04-01T08:36:16.085Z,12.09
2023-04-01T08:38:55.630Z,11.89
2023-04-01T08:41:23.135Z,11.64
2023-04-01T08:44:29.248Z,11.18
2023-04-01T08:47:06.966Z,10.76
2023-04-01T08:49:49.718Z,10.47
2023-04-01T08:52:34.160Z,10.51
2023-04-01T08:55:15.997Z,10.61
2023-04-01T08:57:59.055Z,10.81
2023-04-01T09:01:02.678Z,10.97
2023-04-01T09:03:51.801Z,11.36
2023-04-01T09:06:49.691Z,11.57
2023-04-01T09:09:33.406Z,11.63
2023-04-01T09:12:28.337Z,11.76
2023-04-01T09:15:14.732Z,12.01
2023-04-01T09:17:52.504Z,12.35
2023-04-01T09:20:20.131Z,12.35
2023-04-01T09:22:54.876Z,12.09
2023-04-01T09:25:22.246Z,11.77
2023-04-01T09:28:08.336Z,11.42
2023-04-01T09:30:36.106Z,11.08
2023-04-01T09:33:22.298Z,10.87
2023-04-01T09:35:49.845Z,10.64
2023-04-01T09:38:23.169Z,10.48
2023-04-01T09:41:10.011Z,10.40
2023-04-01T09:44:02.497Z,10.42
2023-04-01T09:46:39.031Z,10.41
2023-04-01T09:49:09.878Z,10.35
2023-04-01T09:51:57.900Z,10.29
2023-04-01T09:54:25.938Z,10.28
2023-04-01T09:57:14.022Z,10.27
2023-04-01T09:59:55.565Z,10.13
2023-04-01T10:03:00.915Z,10.14
2023-04-01T10:05:36.528Z,10.16
2023-04-01T10:08:06.593Z,10.25
2023-04-01T10:10:41.251Z,10.34
2023-04-01T10:13:17.932Z,10.34
2023-04-01T10:16:01.442Z,10.36
2023-04-01T10:18:47.870Z,10.30
2023-04-01T10:21:34.640Z,10.14
2023-04-01T10:24:20.947Z,10.15
2023-04-01T10:26:50.332Z,10.19
2023-04-01T10:29:52.608Z,10.21
2023-04-01T10:32:36.719Z,10.24
2023-04-01T10:35:22.327Z,10.26
2023-04-01T10:38:08.779Z,10.23
2023-04-01T10:40:42.844Z,10.14
2023-04-01T10:43:47.092Z,10.21
2023-04-01T10:46:26.377Z,10.35
2023-04-01T10:49:03.834Z,10.43
2023-04-01T10:51:51.225Z,10.50
2023-04-01T10:54:32.479Z,10.61
2023-04-01T10:57:35.333Z,10.62
2023-04-01T11:00:29.524Z,10.56
2023-04-01T11:03:27.581Z,10.52
2023-04-01T11:06:24.382Z,10.60
2023-04-01T11:09:21.717Z,10.74
2023-04-01T11:11:49.177Z,10.94
2023-04-01T11:14:26.593Z,11.14
2023-04-01T11:16:57.110Z,11.41
2023-04-01T11:19:45.673Z,11.54
2023-04-01T11:22:16.189Z,11.65
2023-04-01T11:24:59.273Z,11.60
2023-04-01T11:28:07.452Z,11.52
2023-04-01T11:30:47.453Z,11.43
2023-04-01T11:33:27.325Z,11.59
2023-04-01T11:36:14.782Z,11.81
2023-04-01T11:38:45.693Z,12.09
2023-04-01T11:41:40.565Z,12.31
2023-04-01T11:44:28.855Z,12.60
2023-04-01T11:47:20.702Z,12.93
2023-04-01T11:49:57.333Z,13.27
2023-04-01T11:52:56.065Z,13.45
2023-04-01T11:55:33.326Z,13.52
2023-04-01T11:58:19.740Z,13.61
2023-04-01T12:00:53.649Z,13.63
2023-04-01T12:03:38.898Z,13.50
2023-04-01T12:06:21.984Z,13.53
2023-04-01T12:09:02.270Z,13.72
2023-04-01T12:11:36.443Z,13.89
2023-04-01T12:14:17.025Z,13.90
2023-04-01T12:16:47.501Z,13.79
2023-04-01T12:19:33.672Z,13.86
2023-04-01T12:22:01.066Z,13.93
2023-04-01T12:24:42.910Z,13.99
2023-04-01T12:27:11.754Z,14.17
2023-04-01T12:29:50.494Z,14.08
2023-04-01T12:32:27.260Z,14.17
2023-04-01T12:34:59.486Z,14.28
2023-04-01T12:37:46.001Z,14.41
2023-04-01T12:40:19.552Z,14.41
2023-04-01T12:42:52.698Z,14.34
2023-04-01T12:45:34.152Z,14.24
2023-04-01T12:48:04.883Z,14.23
2023-04-01T12:50:41.881Z,14.20
2023-04-01T12:53:09.074Z,14.15
2023-04-01T12:55:40.870Z,14.03
2023-04-01T12:58:27.183Z,13.89
2023-04-01T13:01:00.904Z,13.92
2023-04-01T13:03:28.298Z,13.87
2023-04-01T13:06:15.932Z,13.73
2023-04-01T13:08:56.857Z,13.62
2023-04-01T13:11:27.211Z,13.46
2023-04-01T13:14:01.178Z,13.36
2023-04-01T13:16:30.380Z,13.20
2023-04-01T13:19:16.547Z,13.07
2023-04-01T13:21:47.099Z,12.89
2023-04-01T13:24:14.380Z,12.69
2023-04-01T13:26:41.712Z,12.55
2023-04-01T13:29:09.054Z,12.43
2023-04-01T13:31:36.314Z,12.33
2023-04-01T13:34:19.548Z,12.17
2023-04-01T13:36:56.681Z,12.02
2023-04-01T13:39:36.399Z,11.89
2023-04-01T13:42:03.582Z,11.75
2023-04-01T13:44:38.301Z,11.66
2023-04-01T13:47:05.732Z,11.55
2023-04-01T13:49:49.925Z,11.46
2023-04-01T13:52:17.487Z,11.35
2023-04-01T13:54:47.735Z,11.35
2023-04-01T13:57:20.988Z,11.23
2023-04-01T13:59:57.781Z,11.09
2023-04-01T14:02:31.276Z,10.91
2023-04-01T14:05:17.284Z,10.84
2023-04-01T14:07:50.568Z,10.81
2023-04-01T14:10:42.847Z,10.82
2023-04-01T14:13:35.161Z,10.76
2023-04-01T14:16:12.986Z,10.69
2023-04-01T14:19:03.665Z,10.68
2023-04-01T14:21:33.932Z,10.60
2023-04-01T14:24:01.464Z,10.52
2023-04-01T14:27:00.712Z,10.50
2023-04-01T14:29:37.757Z,10.49
2023-04-01T14:32:29.292Z,10.46
2023-04-01T14:34:56.828Z,10.35
2023-04-01T14:37:44.631Z,10.30
2023-04-01T14:40:15.061Z,10.26
2023-04-01T14:43:01.126Z,10.21
2023-04-01T14:45:40.783Z,10.09
2023-04-01T14:48:26.709Z,10.02
2023-04-01T14:50:56.567Z,9.99
2023-04-01T14:53:23.913Z,10.02
2023-04-01T14:55:52.884Z,10.03
2023-04-01T14:58:22.888Z,10.02
2023-04-01T15:00:50.877Z,10.00
2023-04-01T15:03:27.944Z,10.00
2023-04-01T15:05:57.689Z,9.99
2023-04-01T15:08:31.501Z,9.94
2023-04-01T15:11:17.965Z,9.90
2023-04-01T15:13:57.425Z,9.89
2023-04-01T15:16:29.044Z,9.85
2023-04-01T15:19:14.040Z,9.78
2023-04-01T15:21:56.822Z,9.70
2023-04-01T15:24:43.204Z,9.67
2023-04-01T15:27:13.918Z,9.61
2023-04-01T15:29:42.119Z,9.54
2023-04-01T15:32:18.225Z,9.46
2023-04-01T15:34:49.947Z,9.39
2023-04-01T15:37:17.154Z,9.35
2023-04-01T15:40:07.573Z,9.33
2023-04-01T15:42:51.516Z,9.32
2023-04-01T15:45:34.862Z,9.34
2023-04-01T15:48:07.611Z,9.36
2023-04-01T15:53:25.750Z,9.35
2023-04-01T15:55:53.127Z,9.34
2023-04-01T15:58:20.403Z,9.36
2023-04-01T16:00:54.706Z,9.37
2023-04-01T16:03:37.164Z,9.36
2023-04-01T16:06:16.088Z,9.34
2023-04-01T16:08:54.547Z,9.28
2023-04-01T16:11:28.910Z,9.29
2023-04-01T16:14:03.906Z,9.27
2023-04-01T16:16:31.654Z,9.25
2023-04-01T16:19:08.194Z,9.26
2023-04-01T16:22:01.652Z,9.21
2023-04-01T16:24:40.756Z,9.13
2023-04-01T16:27:34.413Z,9.08
2023-04-01T16:30:05.005Z,9.05
2023-04-01T16:32:38.582Z,9.00
2023-04-01T16:35:18.781Z,8.99
2023-04-01T16:37:55.215Z,8.98
2023-04-01T16:40:48.277Z,8.96
2023-04-01T16:43:26.332Z,8.94
2023-04-01T16:46:16.898Z,8.90
2023-04-01T16:49:01.269Z,8.91
2023-04-01T16:51:58.120Z,8.90
2023-04-01T16:54:30.378Z,8.91
2023-04-01T16:57:10.085Z,8.90
2023-04-01T16:59:39.317Z,8.88
2023-04-01T17:02:12.868Z,8.86
2023-04-01T17:04:40.167Z,8.86
2023-04-01T17:07:16.376Z,8.88
2023-04-01T17:09:43.635Z,8.88
2023-04-01T17:12:11.095Z,8.89
2023-04-01T17:14:44.513Z,8.92
2023-04-01T17:17:18.369Z,8.92
2023-04-01T17:20:00.877Z,8.91
2023-04-01T17:22:46.773Z,8.91
2023-04-01T17:25:19.159Z,8.92
2023-04-01T17:27:53.243Z,8.94
2023-04-01T17:30:30.187Z,8.95
2023-04-01T17:33:10.280Z,8.92
2023-04-01T17:35:44.121Z,8.92
2023-04-01T17:38:21.146Z,8.91
2023-04-01T17:40:58.775Z,8.90
2023-04-01T17:43:33.781Z,8.90
2023-04-01T17:46:24.411Z,8.92
2023-04-01T17:48:59.677Z,8.96
2023-04-01T17:51:34.871Z,8.98
2023-04-01T17:54:02.245Z,8.99
2023-04-01T17:56:30.035Z,8.96
2023-04-01T17:59:00.500Z,8.92
2023-04-01T18:01:35.194Z,8.91
2023-04-01T18:04:16.712Z,8.89
2023-04-01T18:06:47.121Z,8.87
2023-04-01T18:09:27.068Z,8.83
2023-04-01T18:12:13.146Z,8.83
2023-04-01T18:14:43.726Z,8.82
2023-04-01T18:17:19.888Z,8.82
2023-04-01T18:19:50.227Z,8.79
2023-04-01T18:22:30.484Z,8.78
2023-04-01T18:25:07.295Z,8.77
2023-04-01T18:27:41.667Z,8.78
2023-04-01T18:30:15.087Z,8.81
2023-04-01T18:32:51.361Z,8.82
2023-04-01T18:35:22.537Z,8.78
2023-04-01T18:37:49.964Z,8.78
2023-04-01T18:40:25.483Z,8.79
2023-04-01T18:43:11.449Z,8.78
2023-04-01T18:45:47.520Z,8.79
2023-04-01T18:48:14.953Z,8.78
2023-04-01T18:50:52.642Z,8.79
2023-04-01T18:53:23.532Z,8.79
2023-04-01T18:55:54.039Z,8.76
2023-04-01T18:58:36.703Z,8.79
2023-04-01T19:01:04.143Z,8.83
2023-04-01T19:03:38.212Z,8.85
2023-04-01T19:06:31.384Z,8.88
2023-04-01T19:09:11.318Z,8.84
2023-04-01T19:11:51.361Z,8.74
2023-04-01T19:14:37.532Z,8.70
2023-04-01T19:17:16.985Z,8.71
2023-04-01T19:19:47.692Z,8.73
2023-04-01T19:22:16.049Z,8.76
2023-04-01T19:24:50.448Z,8.80
2023-04-01T19:27:33.204Z,8.81
2023-04-01T19:30:05.186Z,8.79
2023-04-01T19:32:47.528Z,8.76
2023-04-01T19:35:24.275Z,8.77
2023-04-01T19:37:56.114Z,8.80
2023-04-01T19:40:36.446Z,8.79
2023-04-01T19:43:16.038Z,8.81
2023-04-01T19:45:56.589Z,8.79
2023-04-01T19:48:40.280Z,8.78
2023-04-01T19:51:17.979Z,8.79
2023-04-01T19:53:45.478Z,8.83
2023-04-01T19:56:20.146Z,8.84
2023-04-01T19:59:06.656Z,8.86
2023-04-01T20:01:44.135Z,8.86
2023-04-01T20:04:17.142Z,8.85
2023-04-01T20:06:50.481Z,8.84
2023-04-01T20:09:17.950Z,8.82
2023-04-01T20:11:48.744Z,8.82
2023-04-01T20:14:29.516Z,8.81
2023-04-01T20:17:03.064Z,8.86
2023-04-01T20:19:51.057Z,8.86
2023-04-01T20:22:29.517Z,8.91
2023-04-01T20:25:01.068Z,8.94
2023-04-01T20:27:33.531Z,8.97
2023-04-01T20:30:11.101Z,9.00
2023-04-01T20:32:41.651Z,9.02
2023-04-01T20:35:08.989Z,9.04
2023-04-01T20:37:56.019Z,9.05
2023-04-01T20:40:34.984Z,9.06
2023-04-01T20:43:12.162Z,9.08
2023-04-01T20:45:48.938Z,9.11
2023-04-01T20:48:32.220Z,9.12
2023-04-01T20:51:06.711Z,9.05
2023-04-01T20:53:43.716Z,9.05
2023-04-01T20:56:11.880Z,9.06
2023-04-01T20:59:03.715Z,9.09
2023-04-01T21:01:51.707Z,9.09
2023-04-01T21:04:32.197Z,9.10
2023-04-01T21:07:17.726Z,9.13
2023-04-01T21:09:53.528Z,9.13
2023-04-01T21:12:29.132Z,9.12
2023-04-01T21:15:00.064Z,9.04
2023-04-01T21:17:40.235Z,9.00
2023-04-01T21:20:17.519Z,8.96
2023-04-01T21:22:45.304Z,8.96
2023-04-01T21:25:18.988Z,8.97
2023-04-01T21:28:01.336Z,8.98
2023-04-01T21:30:41.746Z,9.00
2023-04-01T21:33:12.241Z,9.01
2023-04-01T21:35:51.968Z,8.99
2023-04-01T21:38:19.546Z,9.01
2023-04-01T21:40:57.237Z,9.03
2023-04-01T21:43:38.461Z,9.03
2023-04-01T21:46:06.146Z,9.06
2023-04-01T21:48:46.741Z,9.08
2023-04-01T21:51:27.311Z,9.08
2023-04-01T21:53:58.020Z,9.10
2023-04-01T21:56:41.063Z,9.12
2023-04-01T21:59:28.188Z,9.14
2023-04-01T22:02:14.359Z,9.16
2023-04-01T22:05:01.090Z,9.12
2023-04-01T22:07:35.696Z,9.12
2023-04-01T22:10:06.269Z,9.13
2023-04-01T22:12:42.202Z,9.12
2023-04-01T22:15:18.945Z,9.10
2023-04-01T22:17:50.570Z,9.09
2023-04-01T22:20:27.476Z,9.10
2023-04-01T22:23:14.156Z,9.10
2023-04-01T22:25:45.831Z,9.10
2023-04-01T22:28:17.173Z,9.05
2023-04-01T22:30:52.075Z,9.01
2023-04-01T22:33:37.027Z,8.99
2023-04-01T22:36:05.062Z,8.96
2023-04-01T22:38:42.450Z,8.94
2023-04-01T22:41:25.293Z,8.94
2023-04-01T22:43:53.369Z,8.96
2023-04-01T22:46:39.831Z,8.95
2023-04-01T22:49:17.700Z,8.98
2023-04-01T22:51:51.189Z,9.00
2023-04-01T22:54:18.922Z,8.99
2023-04-01T22:56:49.554Z,8.99
2023-04-01T22:59:43.590Z,8.99
2023-04-01T23:02:27.589Z,8.98
2023-04-01T23:04:57.693Z,8.93
2023-04-01T23:07:47.836Z,8.93
2023-04-01T23:10:31.149Z,8.92
2023-04-01T23:13:03.461Z,8.92
2023-04-01T23:15:31.779Z,8.91
2023-04-01T23:18:18.710Z,8.89
2023-04-01T23:20:46.684Z,8.84
2023-04-01T23:23:22.565Z,8.82
2023-04-01T23:26:06.260Z,8.78
2023-04-01T23:28:41.573Z,8.77
2023-04-01T23:31:28.139Z,8.79
2023-04-01T23:34:01.184Z,8.81
2023-04-01T23:36:29.548Z,8.82
2023-04-01T23:38:57.427Z,8.85
2023-04-01T23:41:27.597Z,8.86
2023-04-01T23:44:03.236Z,8.85
2023-04-01T23:46:33.381Z,8.83
2023-04-01T23:49:02.075Z,8.82
2023-04-01T23:51:37.896Z,8.83
2023-04-01T23:54:12.304Z,8.85
2023-04-01T23:56:42.515Z,8.87
2023-04-01T23:59:24.452Z,8.90
